createdAt,value
2018-11-21T00:02:06.503Z,8.07
2018-11-21T00:04:37.065Z,8.87
2018-11-21T00:07:07.752Z,8.13
2018-11-21T00:09:38.668Z,8.93
2018-11-21T00:12:16.349Z,8.57
2018-11-21T00:14:46.889Z,8.63
2018-11-21T00:17:17.451Z,8.00
2018-11-21T00:19:48.112Z,8.50
2018-11-21T00:22:18.685Z,8.30
2018-11-21T00:24:49.285Z,7.83
2018-11-21T00:27:19.954Z,8.43
2018-11-21T00:30:12.358Z,8.73
2018-11-21T00:32:43.005Z,7.90
2018-11-21T00:35:14.114Z,7.30
2018-11-21T00:37:44.705Z,8.70
2018-11-21T00:40:16.431Z,8.03
2018-11-21T00:42:47.189Z,7.63
2018-11-21T00:45:17.701Z,8.23
2018-11-21T00:47:48.365Z,7.67
2018-11-21T00:50:18.979Z,8.20
2018-11-21T00:52:49.575Z,7.90
2018-11-21T00:55:20.206Z,7.20
2018-11-21T00:57:50.760Z,6.93
2018-11-21T01:00:22.013Z,7.50
2018-11-21T01:02:52.646Z,7.37
2018-11-21T01:05:23.214Z,7.20
2018-11-21T01:07:53.803Z,6.83
2018-11-21T01:10:24.464Z,7.93
2018-11-21T01:12:55.056Z,7.73
2018-11-21T01:15:25.640Z,7.20
2018-11-21T01:17:56.279Z,6.73
2018-11-21T01:20:26.887Z,8.57
2018-11-21T01:22:57.501Z,7.70
2018-11-21T01:25:28.160Z,6.97
2018-11-21T01:27:58.782Z,7.30
2018-11-21T01:30:29.406Z,7.40
2018-11-21T01:32:59.916Z,6.50
2018-11-21T01:35:30.622Z,6.67
2018-11-21T01:38:01.162Z,7.27
2018-11-21T01:40:31.803Z,6.87
2018-11-21T01:43:02.409Z,6.93
2018-11-21T01:45:33.005Z,7.27
2018-11-21T01:48:03.641Z,7.07
2018-11-21T01:50:34.222Z,6.70
2018-11-21T01:53:04.951Z,6.63
2018-11-21T01:55:36.179Z,6.93
2018-11-21T01:58:07.200Z,6.57
2018-11-21T02:00:37.783Z,6.53
2018-11-21T02:03:08.429Z,6.70
2018-11-21T02:05:39.065Z,6.60
2018-11-21T02:08:09.682Z,6.70
2018-11-21T02:10:40.301Z,6.30
2018-11-21T02:13:10.963Z,6.27
2018-11-21T02:15:41.598Z,6.50
2018-11-21T02:18:12.222Z,7.17
2018-11-21T02:20:42.845Z,6.97
2018-11-21T02:23:13.481Z,6.67
2018-11-21T02:25:44.182Z,6.87
2018-11-21T02:28:15.082Z,7.23
2018-11-21T02:30:45.740Z,6.87
2018-11-21T02:33:16.404Z,6.83
2018-11-21T02:35:47.066Z,6.63
2018-11-21T02:38:33.482Z,7.23
2018-11-21T02:41:04.061Z,6.80
2018-11-21T02:43:34.782Z,6.40
2018-11-21T02:46:05.740Z,7.20
2018-11-21T02:48:36.386Z,6.77
2018-11-21T02:51:07.041Z,6.97
2018-11-21T02:53:37.762Z,6.93
2018-11-21T02:56:08.405Z,6.77
2018-11-21T02:58:39.106Z,7.50
2018-11-21T03:01:09.800Z,6.70
2018-11-21T03:03:40.470Z,7.03
2018-11-21T03:06:11.075Z,6.90
2018-11-21T03:08:41.905Z,7.10
2018-11-21T03:11:12.515Z,7.10
2018-11-21T03:13:43.404Z,6.87
2018-11-21T03:16:14.071Z,6.90
2018-11-21T03:18:44.738Z,6.60
2018-11-21T03:21:15.362Z,7.17
2018-11-21T03:23:46.111Z,7.00
2018-11-21T03:26:16.802Z,7.13
2018-11-21T03:28:47.407Z,7.80
2018-11-21T03:31:18.081Z,7.17
2018-11-21T03:33:48.743Z,7.10
2018-11-21T03:36:21.242Z,7.50
2018-11-21T03:38:52.155Z,7.83
2018-11-21T03:41:22.813Z,7.40
2018-11-21T03:43:53.488Z,6.83
2018-11-21T03:46:24.128Z,7.27
2018-11-21T03:48:54.678Z,7.13
2018-11-21T03:51:25.232Z,6.43
2018-11-21T03:53:56.313Z,7.10
2018-11-21T03:56:26.918Z,6.53
2018-11-21T03:58:57.504Z,6.97
2018-11-21T04:01:28.200Z,6.77
2018-11-21T04:03:58.822Z,6.23
2018-11-21T04:06:29.473Z,6.17
2018-11-21T04:09:00.202Z,6.43
2018-11-21T04:11:30.783Z,6.47
2018-11-21T04:14:03.110Z,6.20
2018-11-21T04:16:33.761Z,6.97
2018-11-21T04:19:04.318Z,6.43
2018-11-21T04:21:34.918Z,5.90
2018-11-21T04:24:05.940Z,6.60
2018-11-21T04:26:36.512Z,6.13
2018-11-21T04:29:07.141Z,5.80
2018-11-21T04:31:37.834Z,6.43
2018-11-21T04:34:08.436Z,6.23
2018-11-21T04:36:52.628Z,6.50
2018-11-21T04:39:23.240Z,6.60
2018-11-21T04:41:53.855Z,5.70
2018-11-21T04:44:24.525Z,6.20
2018-11-21T04:46:55.146Z,6.63
2018-11-21T04:49:25.755Z,6.23
2018-11-21T04:51:56.320Z,6.40
2018-11-21T04:54:26.927Z,6.47
2018-11-21T04:56:57.447Z,6.10
2018-11-21T04:59:28.163Z,6.53
2018-11-21T05:01:58.863Z,6.30
2018-11-21T05:04:29.482Z,6.20
2018-11-21T05:07:00.600Z,6.13
2018-11-21T05:09:31.220Z,6.53
2018-11-21T05:12:01.840Z,5.77
2018-11-21T05:14:32.515Z,5.33
2018-11-21T05:17:03.081Z,6.03
2018-11-21T05:19:33.749Z,5.73
2018-11-21T05:22:04.427Z,5.87
2018-11-21T05:24:35.060Z,5.77
2018-11-21T05:27:05.686Z,6.10
2018-11-21T05:29:36.317Z,6.13
2018-11-21T05:32:07.022Z,6.80
2018-11-21T05:34:37.588Z,6.13
2018-11-21T05:37:08.682Z,6.40
2018-11-21T05:39:39.258Z,6.47
2018-11-21T05:42:09.823Z,6.60
2018-11-21T05:44:40.467Z,6.37
2018-11-21T05:47:11.061Z,6.07
2018-11-21T05:49:41.633Z,6.07
2018-11-21T05:52:12.880Z,5.80
2018-11-21T05:54:43.445Z,6.60
2018-11-21T05:57:14.023Z,6.00
2018-11-21T05:59:44.664Z,6.40
2018-11-21T06:02:15.268Z,6.30
2018-11-21T06:04:45.879Z,6.30
2018-11-21T06:07:16.500Z,5.80
2018-11-21T06:09:47.088Z,6.37
2018-11-21T06:12:17.661Z,5.93
2018-11-21T06:14:48.246Z,6.23
2018-11-21T06:17:18.841Z,6.70
2018-11-21T06:19:49.372Z,5.97
2018-11-21T06:22:20.053Z,6.70
2018-11-21T06:24:50.625Z,6.73
2018-11-21T06:27:21.247Z,6.47
2018-11-21T06:29:51.818Z,6.23
2018-11-21T06:32:22.450Z,5.80
2018-11-21T06:34:53.008Z,6.03
2018-11-21T06:37:23.604Z,6.13
2018-11-21T06:39:54.241Z,6.07
2018-11-21T06:42:24.881Z,5.90
2018-11-21T06:44:55.538Z,6.20
2018-11-21T06:47:26.075Z,6.73
2018-11-21T06:49:56.760Z,7.50
2018-11-21T06:52:27.381Z,8.37
2018-11-21T06:54:57.961Z,8.20
2018-11-21T06:57:28.785Z,9.37
2018-11-21T06:59:59.359Z,8.87
2018-11-21T07:02:31.365Z,9.17
2018-11-21T07:05:01.903Z,8.73
2018-11-21T07:07:32.512Z,9.00
2018-11-21T07:10:03.183Z,8.63
2018-11-21T07:12:33.786Z,8.07
2018-11-21T07:15:04.742Z,8.10
2018-11-21T07:17:35.341Z,8.53
2018-11-21T07:20:08.557Z,7.27
2018-11-21T07:22:39.241Z,7.53
2018-11-21T07:25:17.525Z,6.90
2018-11-21T07:27:48.196Z,7.43
2018-11-21T07:30:21.779Z,7.57
2018-11-21T07:32:52.379Z,7.83
2018-11-21T07:35:23.003Z,7.23
2018-11-21T07:37:53.602Z,7.77
2018-11-21T07:40:24.164Z,7.17
2018-11-21T07:42:54.803Z,7.60
2018-11-21T07:45:25.431Z,7.23
2018-11-21T07:47:56.016Z,8.13
2018-11-21T07:50:26.658Z,7.90
2018-11-21T07:52:57.253Z,8.57
2018-11-21T07:55:27.826Z,8.13
2018-11-21T07:58:00.700Z,8.00
2018-11-21T08:01:21.907Z,8.63
2018-11-21T08:03:57.441Z,8.33
2018-11-21T08:06:49.392Z,8.03
2018-11-21T08:09:37.659Z,8.43
2018-11-21T08:12:28.732Z,8.47
2018-11-21T08:15:19.451Z,8.17
2018-11-21T08:18:15.502Z,7.17
2018-11-21T08:21:07.694Z,7.87
2018-11-21T08:23:56.097Z,8.17
2018-11-21T08:26:54.637Z,8.13
2018-11-21T08:29:27.815Z,7.93
2018-11-21T08:31:58.552Z,9.57
2018-11-21T08:34:29.255Z,8.33
2018-11-21T08:37:01.956Z,9.47
2018-11-21T08:39:32.584Z,8.67
2018-11-21T08:42:03.198Z,9.30
2018-11-21T08:44:33.881Z,8.90
2018-11-21T08:47:04.570Z,9.00
2018-11-21T08:49:35.188Z,8.47
2018-11-21T08:52:06.274Z,8.77
2018-11-21T08:54:36.906Z,9.23
2018-11-21T08:57:07.541Z,8.70
2018-11-21T08:59:38.133Z,8.20
2018-11-21T09:02:08.837Z,8.67
2018-11-21T09:04:39.791Z,8.07
2018-11-21T09:07:10.356Z,8.33
2018-11-21T09:09:40.960Z,8.00
2018-11-21T09:12:15.337Z,8.03
2018-11-21T09:14:42.154Z,8.03
2018-11-21T09:17:12.839Z,7.60
2018-11-21T09:19:43.337Z,7.50
2018-11-21T09:22:13.876Z,8.10
2018-11-21T09:24:44.591Z,6.63
2018-11-21T09:27:15.085Z,7.33
2018-11-21T09:29:45.567Z,6.17
2018-11-21T09:32:16.229Z,5.83
2018-11-21T09:34:46.834Z,6.40
2018-11-21T09:37:17.396Z,5.90
2018-11-21T09:39:48.113Z,5.37
2018-11-21T09:42:18.803Z,5.57
2018-11-21T09:44:49.518Z,5.00
2018-11-21T09:47:20.105Z,4.93
2018-11-21T09:49:50.695Z,4.77
2018-11-21T09:52:21.292Z,4.23
2018-11-21T09:54:51.947Z,4.37
2018-11-21T09:57:22.473Z,3.90
2018-11-21T09:59:53.019Z,3.70
2018-11-21T10:03:20.846Z,3.50
2018-11-21T10:06:02.274Z,3.13
2018-11-21T10:08:39.099Z,2.83
2018-11-21T10:11:10.490Z,2.87
2018-11-21T10:13:41.088Z,2.90
2018-11-21T10:16:11.753Z,2.63
2018-11-21T10:18:43.896Z,2.67
2018-11-21T10:21:16.080Z,2.47
2018-11-21T10:23:46.841Z,2.40
2018-11-21T10:26:17.313Z,2.77
2018-11-21T10:28:48.564Z,2.87
2018-11-21T10:31:19.137Z,2.90
2018-11-21T10:33:49.767Z,2.50
2018-11-21T10:36:20.332Z,2.20
2018-11-21T10:38:50.960Z,2.30
2018-11-21T10:41:21.517Z,1.90
2018-11-21T10:43:52.097Z,2.40
2018-11-21T10:46:22.732Z,1.93
2018-11-21T10:48:53.327Z,1.70
2018-11-21T10:51:23.945Z,1.87
2018-11-21T10:53:54.556Z,1.70
2018-11-21T10:56:25.190Z,1.57
2018-11-21T10:58:55.761Z,1.57
2018-11-21T11:01:44.119Z,1.50
2018-11-21T11:04:54.927Z,1.70
2018-11-21T11:07:50.438Z,1.77
2018-11-21T11:10:46.113Z,1.50
2018-11-21T11:13:35.370Z,1.50
2018-11-21T11:16:26.397Z,1.30
2018-11-21T11:19:19.000Z,1.60
2018-11-21T11:22:07.307Z,1.30
2018-11-21T11:25:03.373Z,1.37
2018-11-21T11:28:02.658Z,1.17
2018-11-21T11:31:00.400Z,1.27
2018-11-21T11:33:50.578Z,1.67
2018-11-21T11:36:40.247Z,1.30
2018-11-21T11:39:28.995Z,1.50
2018-11-21T11:42:30.799Z,1.60
2018-11-21T11:45:37.038Z,1.43
2018-11-21T11:48:25.289Z,1.60
2018-11-21T11:51:24.194Z,1.50
2018-11-21T11:54:12.671Z,1.60
2018-11-21T11:56:56.216Z,1.50
2018-11-21T11:59:47.887Z,1.43
2018-11-21T12:02:45.227Z,1.50
2018-11-21T12:05:40.697Z,1.60
2018-11-21T12:08:30.248Z,1.53
2018-11-21T12:11:18.739Z,1.57
2018-11-21T12:14:17.057Z,1.80
2018-11-21T12:17:05.042Z,1.70
2018-11-21T12:19:59.300Z,1.70
2018-11-21T12:22:51.942Z,1.63
2018-11-21T12:25:43.616Z,1.60
2018-11-21T12:28:31.943Z,1.77
2018-11-21T12:31:38.268Z,1.57
2018-11-21T12:34:46.522Z,1.60
2018-11-21T12:37:36.306Z,1.50
2018-11-21T12:40:39.579Z,1.67
2018-11-21T12:43:32.779Z,2.00
2018-11-21T12:46:28.099Z,2.07
2018-11-21T12:49:23.656Z,1.93
2018-11-21T12:52:12.259Z,1.90
2018-11-21T12:55:01.791Z,2.10
2018-11-21T12:57:54.258Z,2.00
2018-11-21T13:00:53.379Z,1.90
2018-11-21T13:03:37.408Z,1.87
2018-11-21T13:06:30.378Z,1.80
2018-11-21T13:09:09.706Z,1.83
2018-11-21T13:12:15.525Z,1.80
2018-11-21T13:15:02.765Z,1.60
2018-11-21T13:17:52.406Z,1.80
2018-11-21T13:20:40.946Z,2.03
2018-11-21T13:23:36.838Z,2.00
2018-11-21T13:26:32.424Z,2.23
2018-11-21T13:29:30.855Z,1.93
2018-11-21T13:32:35.513Z,2.07
2018-11-21T13:35:25.031Z,2.10
2018-11-21T13:38:23.945Z,2.10
2018-11-21T13:41:29.928Z,1.90
2018-11-21T13:44:22.464Z,2.60
2018-11-21T13:47:16.368Z,2.30
2018-11-21T13:50:04.423Z,1.93
2018-11-21T13:52:59.956Z,3.30
2018-11-21T13:55:30.606Z,2.80
2018-11-21T13:58:01.160Z,2.40
2018-11-21T14:00:31.761Z,3.07
2018-11-21T14:03:02.365Z,3.53
2018-11-21T14:05:32.958Z,3.73
2018-11-21T14:08:03.573Z,3.93
2018-11-21T14:10:34.226Z,4.40
2018-11-21T14:13:04.846Z,4.73
2018-11-21T14:15:35.442Z,5.47
2018-11-21T14:18:06.396Z,6.73
2018-11-21T14:20:36.946Z,5.83
2018-11-21T14:23:07.513Z,6.13
2018-11-21T14:25:38.100Z,6.33
2018-11-21T14:28:08.652Z,7.30
2018-11-21T14:30:39.278Z,8.53
2018-11-21T14:33:09.873Z,7.90
2018-11-21T14:35:40.439Z,8.40
2018-11-21T14:38:11.027Z,8.87
2018-11-21T14:40:41.637Z,8.50
2018-11-21T14:43:12.192Z,9.40
2018-11-21T14:45:42.771Z,9.23
2018-11-21T14:48:13.339Z,8.87
2018-11-21T14:50:43.955Z,9.13
2018-11-21T14:53:14.520Z,9.70
2018-11-21T14:55:45.118Z,9.27
2018-11-21T14:58:15.727Z,9.10
2018-11-21T15:00:46.326Z,9.50
2018-11-21T15:03:18.434Z,10.20
2018-11-21T15:05:48.110Z,11.00
2018-11-21T15:08:18.722Z,10.67
2018-11-21T15:10:49.371Z,11.00
2018-11-21T15:13:19.927Z,10.87
2018-11-21T15:15:50.519Z,11.30
2018-11-21T15:18:21.233Z,10.80
2018-11-21T15:20:51.833Z,11.30
2018-11-21T15:23:22.414Z,12.97
2018-11-21T15:25:53.192Z,12.73
2018-11-21T15:28:23.869Z,11.93
2018-11-21T15:30:54.426Z,12.53
2018-11-21T15:33:25.114Z,12.40
2018-11-21T15:35:55.774Z,13.00
2018-11-21T15:38:26.303Z,12.93
2018-11-21T15:40:57.109Z,13.10
2018-11-21T15:43:45.933Z,12.93
2018-11-21T15:46:16.588Z,12.43
2018-11-21T15:48:47.213Z,13.10
2018-11-21T15:51:17.800Z,13.93
